createdAt,value
2023-11-20T00:04:22.331Z,100243.00
2023-11-20T00:10:05.127Z,100241.00
2023-11-20T00:15:29.768Z,100221.00
2023-11-20T00:20:53.307Z,100223.00
2023-11-20T00:26:16.927Z,100219.00
2023-11-20T00:31:50.452Z,100233.00
2023-11-20T00:37:16.152Z,100228.00
2023-11-20T00:42:41.033Z,100231.00
2023-11-20T00:48:06.728Z,100238.00
2023-11-20T00:53:30.075Z,100239.00
2023-11-20T00:58:53.579Z,100246.00
2023-11-20T01:04:18.398Z,100252.00
2023-11-20T01:09:42.716Z,100256.00
2023-11-20T01:15:08.806Z,100261.00
2023-11-20T01:20:33.946Z,100253.00
2023-11-20T01:25:57.532Z,100267.00
2023-11-20T01:31:21.109Z,100265.00
2023-11-20T01:36:46.813Z,100257.00
2023-11-20T01:42:10.521Z,100268.00
2023-11-20T01:47:36.609Z,100255.00
2023-11-20T01:53:04.724Z,100263.00
2023-11-20T01:58:28.737Z,100261.00
2023-11-20T02:03:59.777Z,100260.00
2023-11-20T02:09:24.414Z,100253.00
2023-11-20T02:14:47.954Z,100248.00
2023-11-20T02:20:11.887Z,100262.00
2023-11-20T02:25:36.722Z,100266.00
2023-11-20T02:31:01.667Z,100250.00
2023-11-20T02:36:26.235Z,100239.00
2023-11-20T02:41:49.810Z,100243.00
2023-11-20T02:47:14.611Z,100239.00
2023-11-20T02:52:37.937Z,100239.00
2023-11-20T02:58:02.572Z,100235.00
2023-11-20T03:03:27.529Z,100244.00
2023-11-20T03:08:51.011Z,100246.00
2023-11-20T03:14:14.624Z,100242.00
2023-11-20T03:19:39.424Z,100243.00
2023-11-20T03:25:03.342Z,100242.00
2023-11-20T03:30:27.039Z,100242.00
2023-11-20T03:35:51.938Z,100238.00
2023-11-20T03:41:17.187Z,100240.00
2023-11-20T03:46:40.458Z,100229.00
2023-11-20T03:52:05.730Z,100240.00
2023-11-20T03:57:29.067Z,100232.00
2023-11-20T04:02:52.725Z,100230.00
2023-11-20T04:08:17.656Z,100224.00
2023-11-20T04:13:41.233Z,100221.00
2023-11-20T04:19:04.981Z,100228.00
2023-11-20T04:24:30.575Z,100215.00
2023-11-20T04:29:54.520Z,100220.00
2023-11-20T04:35:18.197Z,100218.00
2023-11-20T04:40:43.438Z,100221.00
2023-11-20T04:46:09.814Z,100217.00
2023-11-20T04:51:33.525Z,100212.00
2023-11-20T04:56:58.172Z,100218.00
2023-11-20T05:02:21.689Z,100223.00
2023-11-20T05:07:45.288Z,100221.00
2023-11-20T05:13:10.252Z,100225.00
2023-11-20T05:18:33.689Z,100228.00
2023-11-20T05:23:57.227Z,100227.00
2023-11-20T05:29:22.213Z,100224.00
2023-11-20T05:34:45.759Z,100225.00
2023-11-20T05:40:10.718Z,100226.00
2023-11-20T05:45:35.388Z,100229.00
2023-11-20T05:50:58.768Z,100237.00
2023-11-20T05:56:22.275Z,100237.00
2023-11-20T06:01:47.425Z,100241.00
2023-11-20T06:13:00.081Z,100241.00
2023-11-20T06:18:25.700Z,100260.00
2023-11-20T06:23:55.284Z,100261.00
2023-11-20T06:29:19.178Z,100283.00
2023-11-20T06:34:45.047Z,100272.00
2023-11-20T06:47:57.444Z,100288.00
2023-11-20T06:54:53.880Z,100281.00
2023-11-20T07:14:17.230Z,100302.00
2023-11-20T07:34:04.432Z,100315.00
2023-11-20T07:39:51.003Z,100317.00
2023-11-20T07:45:15.605Z,100326.00
2023-11-20T07:50:47.522Z,100333.00
2023-11-20T07:56:11.770Z,100337.00
2023-11-20T08:01:36.074Z,100334.00
2023-11-20T08:07:14.482Z,100336.00
2023-11-20T08:13:15.581Z,100342.00
2023-11-20T08:18:42.825Z,100340.00
2023-11-20T08:24:10.340Z,100353.00
2023-11-20T08:29:33.637Z,100346.00
2023-11-20T08:34:57.920Z,100345.00
2023-11-20T08:40:28.205Z,100340.00
2023-11-20T08:46:09.158Z,100339.00
2023-11-20T08:51:49.241Z,100331.00
2023-11-20T08:57:26.043Z,100346.00
2023-11-20T09:02:51.398Z,100348.00
2023-11-20T09:08:19.586Z,100349.00
2023-11-20T09:13:47.730Z,100352.00
2023-11-20T09:19:14.391Z,100346.00
2023-11-20T09:24:46.929Z,100344.00
2023-11-20T09:30:36.897Z,100337.00
2023-11-20T09:36:15.425Z,100346.00
2023-11-20T09:41:43.226Z,100337.00
2023-11-20T09:47:11.268Z,100340.00
2023-11-20T09:52:40.332Z,100341.00
2023-11-20T09:58:09.263Z,100337.00
2023-11-20T10:03:41.767Z,100337.00
2023-11-20T10:09:38.011Z,100337.00
2023-11-20T10:15:02.393Z,100334.00
2023-11-20T10:20:54.520Z,100331.00
2023-11-20T10:26:26.433Z,100312.00
2023-11-20T10:31:55.638Z,100315.00
2023-11-20T10:37:59.321Z,100321.00
2023-11-20T10:43:35.931Z,100308.00
2023-11-20T10:49:11.476Z,100314.00
2023-11-20T10:54:52.250Z,100320.00
2023-11-20T11:00:19.065Z,100317.00
2023-11-20T11:05:49.743Z,100324.00
2023-11-20T11:12:02.483Z,100321.00
2023-11-20T11:17:57.296Z,100324.00
2023-11-20T11:23:49.545Z,100324.00
2023-11-20T11:29:28.802Z,100319.00
2023-11-20T11:35:31.639Z,100314.00
2023-11-20T11:41:27.613Z,100320.00
2023-11-20T11:46:58.882Z,100323.00
2023-11-20T11:52:28.678Z,100319.00
2023-11-20T11:58:01.053Z,100318.00
2023-11-20T12:03:43.565Z,100315.00
2023-11-20T12:09:10.729Z,100306.00
2023-11-20T12:14:40.933Z,100308.00
2023-11-20T12:20:10.483Z,100311.00
2023-11-20T12:26:18.502Z,100308.00
2023-11-20T12:31:57.717Z,100307.00
2023-11-20T12:37:45.139Z,100316.00
2023-11-20T12:43:11.046Z,100314.00
2023-11-20T12:49:01.650Z,100330.00
2023-11-20T12:54:32.198Z,100331.00
2023-11-20T12:59:56.430Z,100334.00
2023-11-20T13:05:25.405Z,100344.00
2023-11-20T13:10:56.345Z,100339.00
2023-11-20T13:16:27.495Z,100344.00
2023-11-20T13:22:02.646Z,100354.00
2023-11-20T13:27:28.019Z,100341.00
2023-11-20T13:32:55.753Z,100348.00
2023-11-20T13:38:20.288Z,100344.00
2023-11-20T13:43:46.023Z,100348.00
2023-11-20T13:49:09.783Z,100351.00
2023-11-20T13:54:35.404Z,100351.00
2023-11-20T14:00:09.720Z,100360.00
2023-11-20T14:05:43.714Z,100363.00
2023-11-20T14:11:10.715Z,100359.00
2023-11-20T14:16:43.011Z,100368.00
2023-11-20T14:22:08.602Z,100371.00
2023-11-20T14:27:31.815Z,100388.00
2023-11-20T14:32:58.164Z,100385.00
2023-11-20T14:38:43.988Z,100381.00
2023-11-20T14:44:08.985Z,100401.00
2023-11-20T14:49:40.489Z,100412.00
2023-11-20T14:55:08.843Z,100412.00
2023-11-20T15:00:35.442Z,100409.00
2023-11-20T15:06:00.805Z,100425.00
2023-11-20T15:11:26.987Z,100435.00
2023-11-20T15:16:50.278Z,100441.00
2023-11-20T15:22:15.159Z,100434.00
2023-11-20T15:27:45.018Z,100443.00
2023-11-20T15:33:08.528Z,100433.00
2023-11-20T15:38:33.373Z,100441.00
2023-11-20T15:43:56.698Z,100443.00
2023-11-20T15:49:20.014Z,100442.00
2023-11-20T15:54:44.883Z,100438.00
2023-11-20T16:00:10.412Z,100437.00
2023-11-20T16:05:36.252Z,100438.00
2023-11-20T16:11:00.968Z,100447.00
2023-11-20T16:16:24.283Z,100458.00
2023-11-20T16:21:47.928Z,100458.00
2023-11-20T16:27:13.461Z,100465.00
2023-11-20T16:32:36.585Z,100464.00
2023-11-20T16:37:59.770Z,100470.00
2023-11-20T16:43:24.551Z,100477.00
2023-11-20T16:48:47.686Z,100478.00
2023-11-20T16:54:10.776Z,100480.00
2023-11-20T16:59:35.384Z,100478.00
2023-11-20T17:05:00.357Z,100475.00
2023-11-20T17:10:27.089Z,100485.00
2023-11-20T17:15:51.778Z,100488.00
2023-11-20T17:21:17.706Z,100496.00
2023-11-20T17:26:41.976Z,100492.00
2023-11-20T17:32:07.668Z,100491.00
2023-11-20T17:37:30.934Z,100500.00
2023-11-20T17:42:54.356Z,100496.00
2023-11-20T17:48:19.016Z,100497.00
2023-11-20T17:53:42.258Z,100498.00
2023-11-20T17:59:08.714Z,100511.00
2023-11-20T18:04:36.370Z,100519.00
2023-11-20T18:10:00.260Z,100527.00
2023-11-20T18:15:25.310Z,100524.00
2023-11-20T18:20:50.260Z,100535.00
2023-11-20T18:26:13.325Z,100523.00
2023-11-20T18:31:36.459Z,100531.00
2023-11-20T18:37:01.512Z,100537.00
2023-11-20T18:42:25.018Z,100544.00
2023-11-20T18:47:48.483Z,100535.00
2023-11-20T18:53:13.200Z,100545.00
2023-11-20T18:58:36.573Z,100552.00
2023-11-20T19:03:59.754Z,100557.00
2023-11-20T19:09:24.883Z,100564.00
2023-11-20T19:14:49.346Z,100562.00
2023-11-20T19:20:13.637Z,100565.00
2023-11-20T19:25:39.017Z,100571.00
2023-11-20T19:31:02.159Z,100579.00
2023-11-20T19:36:28.973Z,100583.00
2023-11-20T19:41:53.383Z,100578.00
2023-11-20T19:47:16.720Z,100593.00
2023-11-20T19:52:39.925Z,100598.00
2023-11-20T19:58:04.611Z,100601.00
2023-11-20T20:03:27.919Z,100610.00
2023-11-20T20:08:51.154Z,100614.00
2023-11-20T20:14:16.023Z,100611.00
2023-11-20T20:19:39.252Z,100625.00
2023-11-20T20:25:02.968Z,100633.00
2023-11-20T20:30:28.138Z,100640.00
2023-11-20T20:35:51.370Z,100633.00
2023-11-20T20:41:14.689Z,100640.00
2023-11-20T20:46:39.396Z,100643.00
2023-11-20T20:52:03.231Z,100643.00
2023-11-20T20:57:26.882Z,100644.00
2023-11-20T21:02:51.768Z,100641.00
2023-11-20T21:08:15.118Z,100646.00
2023-11-20T21:13:38.801Z,100645.00
2023-11-20T21:19:03.680Z,100655.00
2023-11-20T21:24:26.987Z,100649.00
2023-11-20T21:29:50.129Z,100661.00
2023-11-20T21:35:14.646Z,100659.00
2023-11-20T21:40:37.617Z,100651.00
2023-11-20T21:46:00.844Z,100660.00
2023-11-20T21:51:25.411Z,100655.00
2023-11-20T21:56:48.747Z,100663.00
2023-11-20T22:02:12.214Z,100661.00
2023-11-20T22:07:36.906Z,100658.00
2023-11-20T22:12:59.954Z,100672.00
2023-11-20T22:18:23.442Z,100673.00
2023-11-20T22:23:48.233Z,100674.00
2023-11-20T22:29:11.211Z,100683.00
2023-11-20T22:34:35.621Z,100670.00
2023-11-20T22:40:00.474Z,100682.00
2023-11-20T22:45:23.784Z,100680.00
2023-11-20T22:50:46.873Z,100688.00
2023-11-20T22:56:11.900Z,100691.00
2023-11-20T23:01:35.207Z,100688.00
2023-11-20T23:06:58.584Z,100688.00
2023-11-20T23:12:23.319Z,100698.00
2023-11-20T23:17:46.769Z,100705.00
2023-11-20T23:23:10.283Z,100713.00
2023-11-20T23:28:38.344Z,100709.00
2023-11-20T23:34:01.594Z,100702.00
2023-11-20T23:39:24.849Z,100708.00
2023-11-20T23:44:49.549Z,100718.00
2023-11-20T23:50:13.015Z,100713.00
2023-11-20T23:55:36.209Z,100707.00
